ETNW Airport Information

Runway Information
Runway 03 Length 5573 ft width 156 ft
Elevation 179 ft Threshold 0 ft Heading 26
Runway 21 Length 5573 ft Width 156 ft
Elevation 170 ft Threshold 0 ft Heading 206
Runway 08 Length 6157 ft width 153 ft
Elevation 172 ft Threshold 0 ft Heading 81
Runway 26 Length 6157 ft Width 153 ft
Elevation 171 ft Threshold 0 ft Heading 261
Runway 08R Length 3569 ft width 132 ft
Elevation 169 ft Threshold 0 ft Heading 81
Runway 26L Length 3569 ft Width 132 ft
Elevation 167 ft Threshold 0 ft Heading 261
Airport Frequencies
Type DIR Name HANNOVER D Frequency 131.325 MHZ
Type RDR Name RADAR Frequency 38.94 MHZ
Type RDR Name RADAR Frequency 123.3 MHZ
Type TWR Name TWR Frequency 122.1 MHZ
Airport Navaids
Type TACAN Name Wunstorf Frequency 114850 KHZ
Type NDB Name Wunstorf Frequency 419 KHZ
Airport Weather Information & NOTAM
ADDS - METARS form results

(1837 UTC 22 September 2018)
Data provider http://aviationweather.gov/metar/data/
 
METAR text: ETNW 221820Z 23007KT 9999 -RA FEW008 OVC050 10/09 Q1017 BLU
Conditions at: ETNW (WUNSTORF (GER-AF, DE) observed 1820 UTC 22 September 2018
Temperature: 10.0°C (50°F)
Dewpoint: 9.0°C (48°F) [RH = 93%]
Pressure (altimeter): 30.03 inches Hg (1017.0 mb)
Winds: from the SW (230 degrees) at 8 MPH (7 knots; 3.6 m/s)
Visibility: 6 or more miles (10+ km)
Ceiling: 5000 feet AGL
Clouds: few clouds at 800 feet AGL
overcast cloud deck at 5000 feet AGL
Weather: -RA  (light rain)